Time;durP1;ratioP1;P1;durP2;ratioP2;P2;SDS_P1;SDS_P2;PMS_P1;PMS_P2;Temp;Humidity;BMP_temperature;BMP_pressure;BME280_temperature;BME280_humidity;BME280_pressure;Samples;Min_cycle;Max_cycle;Signal;HPM_P1;HPM_P2
2021/08/26 00:00:34;;;;;;;;;;;23.30;45.70;;;;;;8369460;28;20281;-50
2021/08/26 00:08:54;;;;;;;;;;;23.30;45.70;;;;;;8368386;28;19982;-49
2021/08/26 00:12:54;;;;;;;;;;;23.30;45.70;;;;;;8369774;28;20362;-49
2021/08/26 00:16:55;;;;;;;;;;;23.30;45.70;;;;;;8368698;28;19923;-49
2021/08/26 00:20:55;;;;;;;;;;;23.30;45.70;;;;;;8367998;28;19921;-48
2021/08/26 00:24:56;;;;;;;;;;;23.30;45.70;;;;;;8368512;28;19935;-49
2021/08/26 00:28:56;;;;;;;;;;;23.30;45.70;;;;;;8369098;28;19924;-48
2021/08/26 00:32:56;;;;;;;;;;;23.20;45.70;;;;;;8367883;28;19916;-48
2021/08/26 00:36:57;;;;;;;;;;;23.30;45.70;;;;;;8367987;28;19918;-48
2021/08/26 00:41:00;;;;;;;;;;;23.20;45.60;;;;;;8367932;28;19964;-49
2021/08/26 00:45:01;;;;;;;;;;;23.20;45.60;;;;;;8367510;28;19928;-50
2021/08/26 00:49:04;;;;;;;;;;;23.20;45.60;;;;;;8367361;28;19917;-49
2021/08/26 00:53:04;;;;;;;;;;;23.20;45.60;;;;;;8367144;28;19913;-49
2021/08/26 00:57:05;;;;;;;;;;;23.20;45.70;;;;;;8367393;28;19917;-49
2021/08/26 01:01:07;;;;;;;;;;;23.20;45.60;;;;;;8367394;28;20428;-48
2021/08/26 01:05:08;;;;;;;;;;;23.20;45.70;;;;;;8367452;28;19932;-47
2021/08/26 01:09:10;;;;;;;;;;;23.20;45.70;;;;;;8367034;28;19921;-47
2021/08/26 01:13:12;;;;;;;;;;;23.20;45.70;;;;;;8367095;28;19917;-46
2021/08/26 01:17:17;;;;;;;;;;;23.10;46.10;;;;;;8366343;28;19912;-47
2021/08/26 01:21:19;;;;;;;;;;;23.10;45.60;;;;;;8367570;28;20349;-48
2021/08/26 01:25:21;;;;;;;;;;;23.10;45.60;;;;;;8366359;28;20434;-48
2021/08/26 01:29:22;;;;;;;;;;;23.10;45.60;;;;;;8366093;28;19925;-50
2021/08/26 01:33:22;;;;;;;;;;;23.10;45.70;;;;;;8366327;28;19924;-48
2021/08/26 01:37:23;;;;;;;;;;;23.10;45.60;;;;;;8366042;28;20288;-47
2021/08/26 01:41:34;;;;;;;;;;;23.10;45.70;;;;;;8366587;28;19920;-48
2021/08/26 01:45:35;;;;;;;;;;;23.10;45.70;;;;;;8365923;28;20096;-48
2021/08/26 01:49:35;;;;;;;;;;;23.10;45.70;;;;;;8365804;28;19913;-48
2021/08/26 01:53:36;;;;;;;;;;;23.10;45.70;;;;;;8365280;28;19920;-49
2021/08/26 01:57:36;;;;;;;;;;;23.00;45.60;;;;;;8366073;28;19916;-48
2021/08/26 02:01:37;;;;;;;;;;;23.00;45.60;;;;;;8365337;28;19923;-48
2021/08/26 02:05:37;;;;;;;;;;;23.00;45.60;;;;;;8364831;28;19928;-49
2021/08/26 02:09:38;;;;;;;;;;;23.00;45.60;;;;;;8365507;28;20011;-47
2021/08/26 02:13:38;;;;;;;;;;;23.00;45.70;;;;;;8365236;28;19966;-48
2021/08/26 02:17:39;;;;;;;;;;;23.00;45.60;;;;;;8365474;28;19917;-49
2021/08/26 02:21:40;;;;;;;;;;;23.00;45.60;;;;;;8364738;28;19956;-48
2021/08/26 02:25:40;;;;;;;;;;;22.90;45.60;;;;;;8364453;28;19925;-48
2021/08/26 02:29:41;;;;;;;;;;;23.00;45.60;;;;;;8364071;28;19921;-49
2021/08/26 02:33:41;;;;;;;;;;;23.00;45.70;;;;;;8365050;28;20380;-48
2021/08/26 02:37:42;;;;;;;;;;;23.00;45.70;;;;;;8364245;28;19956;-47
2021/08/26 02:41:42;;;;;;;;;;;22.90;45.60;;;;;;8363683;28;20020;-51
2021/08/26 02:45:42;;;;;;;;;;;22.90;45.60;;;;;;8364257;28;19925;-48
2021/08/26 02:49:43;;;;;;;;;;;22.90;45.60;;;;;;8364595;28;19913;-48
2021/08/26 02:53:44;;;;;;;;;;;22.90;45.60;;;;;;8362150;28;19916;-47
2021/08/26 02:57:44;;;;;;;;;;;22.90;45.60;;;;;;8363737;28;19924;-49
2021/08/26 03:01:45;;;;;;;;;;;22.90;45.60;;;;;;8363735;28;19917;-49
2021/08/26 03:05:45;;;;;;;;;;;22.90;45.60;;;;;;8338315;28;19992;-49
2021/08/26 03:09:46;;;;;;;;;;;22.80;45.60;;;;;;8363843;28;19920;-50
2021/08/26 03:13:46;;;;;;;;;;;22.80;45.60;;;;;;8363509;28;19921;-49
2021/08/26 03:17:46;;;;;;;;;;;22.80;45.60;;;;;;8362827;28;19917;-50
2021/08/26 03:21:47;;;;;;;;;;;22.80;45.60;;;;;;8363496;28;19916;-49
2021/08/26 03:25:47;;;;;;;;;;;22.80;45.60;;;;;;8363795;28;19931;-48
2021/08/26 03:29:48;;;;;;;;;;;22.80;45.60;;;;;;8362623;28;19917;-49
2021/08/26 03:33:48;;;;;;;;;;;22.80;45.60;;;;;;8363311;28;19917;-49
2021/08/26 03:37:49;;;;;;;;;;;22.80;45.60;;;;;;8362980;28;19917;-48
2021/08/26 03:41:49;;;;;;;;;;;22.80;45.60;;;;;;8362859;28;19920;-49
2021/08/26 03:45:50;;;;;;;;;;;22.80;45.60;;;;;;8362958;28;20296;-49
2021/08/26 03:49:50;;;;;;;;;;;22.80;45.60;;;;;;8363002;28;20273;-48
2021/08/26 03:53:51;;;;;;;;;;;22.70;45.60;;;;;;8362226;28;19940;-47
2021/08/26 03:57:51;;;;;;;;;;;22.70;46.10;;;;;;8362611;28;20392;-49
2021/08/26 04:01:51;;;;;;;;;;;22.70;45.60;;;;;;8363308;28;19916;-49
2021/08/26 04:05:52;;;;;;;;;;;22.70;45.60;;;;;;8361867;28;19928;-49
2021/08/26 04:09:52;;;;;;;;;;;22.70;45.60;;;;;;8362628;28;20308;-50
2021/08/26 04:13:53;;;;;;;;;;;22.70;45.60;;;;;;8362724;28;19912;-48
2021/08/26 04:17:53;;;;;;;;;;;22.70;45.60;;;;;;8362672;28;19917;-49
2021/08/26 04:21:53;;;;;;;;;;;22.70;45.60;;;;;;8362691;28;19916;-48
2021/08/26 04:25:54;;;;;;;;;;;22.70;45.60;;;;;;8368232;28;20007;-49
2021/08/26 04:29:54;;;;;;;;;;;22.70;45.60;;;;;;8367973;28;20250;-49
2021/08/26 04:33:55;;;;;;;;;;;22.70;45.60;;;;;;8368837;28;19913;-50
2021/08/26 04:37:55;;;;;;;;;;;22.70;45.60;;;;;;8368725;28;19921;-48
2021/08/26 04:41:56;;;;;;;;;;;22.60;45.60;;;;;;8367699;28;19928;-50
2021/08/26 04:45:56;;;;;;;;;;;22.60;45.60;;;;;;8367741;28;19971;-48
2021/08/26 04:49:57;;;;;;;;;;;22.60;45.60;;;;;;8367689;28;19986;-49
2021/08/26 04:53:57;;;;;;;;;;;22.60;45.60;;;;;;8367788;28;19919;-50
2021/08/26 04:57:58;;;;;;;;;;;22.60;45.60;;;;;;8367647;28;19940;-49
2021/08/26 05:01:58;;;;;;;;;;;22.60;45.60;;;;;;8367372;28;19913;-48
2021/08/26 05:06:01;;;;;;;;;;;22.60;45.60;;;;;;8366603;28;19925;-49
2021/08/26 05:10:01;;;;;;;;;;;22.60;45.60;;;;;;8367526;28;19920;-48
2021/08/26 05:14:02;;;;;;;;;;;22.60;45.60;;;;;;8366667;28;20428;-49
2021/08/26 05:18:02;;;;;;;;;;;22.50;45.60;;;;;;8366738;28;19924;-52
2021/08/26 05:22:03;;;;;;;;;;;22.50;45.50;;;;;;8366691;28;19924;-53
2021/08/26 05:26:04;;;;;;;;;;;22.50;45.50;;;;;;8366010;28;19920;-50
2021/08/26 05:30:04;;;;;;;;;;;22.60;45.60;;;;;;8367131;28;20369;-48
2021/08/26 05:34:05;;;;;;;;;;;22.60;45.60;;;;;;8366041;28;20297;-49
2021/08/26 05:38:05;;;;;;;;;;;22.50;45.60;;;;;;8365870;28;19917;-48
2021/08/26 05:42:06;;;;;;;;;;;22.50;45.60;;;;;;8366096;28;19917;-49
2021/08/26 05:46:07;;;;;;;;;;;22.50;45.60;;;;;;8366923;28;19920;-50
2021/08/26 05:50:07;;;;;;;;;;;22.50;45.60;;;;;;8365297;28;20043;-50
2021/08/26 05:54:08;;;;;;;;;;;22.50;45.70;;;;;;8365859;28;20274;-48
2021/08/26 05:58:09;;;;;;;;;;;22.50;45.70;;;;;;8365729;28;19917;-49
2021/08/26 06:02:09;;;;;;;;;;;22.50;45.60;;;;;;8365724;28;19916;-50
2021/08/26 06:06:09;;;;;;;;;;;22.50;45.70;;;;;;8365104;28;19929;-49
2021/08/26 06:10:10;;;;;;;;;;;22.50;45.70;;;;;;8365487;28;19974;-48
2021/08/26 06:14:11;;;;;;;;;;;22.50;45.70;;;;;;8364783;28;19967;-48
2021/08/26 06:18:11;;;;;;;;;;;22.50;45.70;;;;;;8364783;28;20361;-49
2021/08/26 06:22:12;;;;;;;;;;;22.50;45.70;;;;;;8365534;28;19923;-50
2021/08/26 06:26:12;;;;;;;;;;;22.50;45.80;;;;;;8364114;28;19925;-49
2021/08/26 06:30:13;;;;;;;;;;;22.50;45.80;;;;;;8364798;28;19917;-49
2021/08/26 06:34:13;;;;;;;;;;;22.50;45.80;;;;;;8364645;28;19913;-48
2021/08/26 06:38:14;;;;;;;;;;;22.50;45.80;;;;;;8364668;28;20331;-49
2021/08/26 06:42:14;;;;;;;;;;;22.40;45.80;;;;;;8364126;28;19924;-48
2021/08/26 06:46:15;;;;;;;;;;;22.40;45.80;;;;;;8363171;28;20019;-48
2021/08/26 06:50:15;;;;;;;;;;;22.40;45.80;;;;;;8363451;28;19917;-49
2021/08/26 06:54:16;;;;;;;;;;;22.40;45.90;;;;;;8364620;28;19974;-49
2021/08/26 06:58:16;;;;;;;;;;;22.40;45.80;;;;;;8364129;28;19921;-49
2021/08/26 07:02:17;;;;;;;;;;;22.40;45.90;;;;;;8363192;28;20335;-48
2021/08/26 07:06:17;;;;;;;;;;;22.40;45.90;;;;;;8363365;28;20308;-49
2021/08/26 07:10:17;;;;;;;;;;;22.40;45.90;;;;;;8363611;28;19920;-49
2021/08/26 07:14:18;;;;;;;;;;;22.40;45.90;;;;;;8363611;28;19919;-49
2021/08/26 07:18:19;;;;;;;;;;;22.40;45.90;;;;;;8363172;28;19917;-49
2021/08/26 07:22:19;;;;;;;;;;;22.40;45.90;;;;;;8363273;28;19917;-49
2021/08/26 07:26:20;;;;;;;;;;;22.50;46.00;;;;;;8362052;28;20438;-50
2021/08/26 07:30:20;;;;;;;;;;;22.50;46.00;;;;;;8362794;28;19916;-48
2021/08/26 07:34:21;;;;;;;;;;;22.50;46.00;;;;;;8361828;28;19917;-51
2021/08/26 07:38:22;;;;;;;;;;;22.40;45.90;;;;;;8361119;28;19928;-50
2021/08/26 07:42:22;;;;;;;;;;;22.40;45.90;;;;;;8361928;28;19917;-49
2021/08/26 07:46:23;;;;;;;;;;;22.50;46.00;;;;;;8361831;28;19928;-50
2021/08/26 07:50:23;;;;;;;;;;;22.50;46.00;;;;;;8361883;28;19913;-52
2021/08/26 07:54:24;;;;;;;;;;;22.50;46.00;;;;;;8361244;28;19971;-50
2021/08/26 07:58:27;;;;;;;;;;;22.50;46.00;;;;;;8366099;28;19938;-48
2021/08/26 08:02:27;;;;;;;;;;;22.50;45.90;;;;;;8367509;28;19917;-49
2021/08/26 08:06:28;;;;;;;;;;;22.50;45.90;;;;;;8368020;28;19931;-50
2021/08/26 08:10:28;;;;;;;;;;;22.50;45.90;;;;;;8367708;28;19978;-48
2021/08/26 08:14:29;;;;;;;;;;;22.50;45.90;;;;;;8367128;28;19917;-49
2021/08/26 08:18:29;;;;;;;;;;;22.50;45.90;;;;;;8367720;28;19923;-48
2021/08/26 08:22:30;;;;;;;;;;;22.60;45.90;;;;;;8368626;28;19975;-47
2021/08/26 08:26:30;;;;;;;;;;;22.60;45.90;;;;;;8367023;28;20447;-48
2021/08/26 08:30:36;;;;;;;;;;;22.60;45.90;;;;;;8367685;28;20011;-48
2021/08/26 08:34:37;;;;;;;;;;;22.60;45.90;;;;;;8371160;28;20412;-49
2021/08/26 08:38:37;;;;;;;;;;;22.60;45.90;;;;;;8366169;28;19944;-48
2021/08/26 08:42:37;;;;;;;;;;;22.60;45.90;;;;;;8367260;28;19967;-50
2021/08/26 08:46:39;;;;;;;;;;;22.60;45.90;;;;;;8366362;28;19933;-50
2021/08/26 08:50:41;;;;;;;;;;;22.60;45.90;;;;;;8365775;28;19924;-48
2021/08/26 08:54:42;;;;;;;;;;;22.60;46.00;;;;;;8366030;28;20284;-52
2021/08/26 08:58:42;;;;;;;;;;;22.70;46.00;;;;;;8366824;28;19917;-50
2021/08/26 09:02:43;;;;;;;;;;;22.70;46.00;;;;;;8365412;28;19979;-49
2021/08/26 09:06:43;;;;;;;;;;;22.70;46.00;;;;;;8366009;28;19924;-49
2021/08/26 09:10:44;;;;;;;;;;;22.70;46.00;;;;;;8364739;28;19921;-48
2021/08/26 09:14:44;;;;;;;;;;;22.70;46.00;;;;;;8365653;28;19920;-51
2021/08/26 09:18:45;;;;;;;;;;;22.70;46.00;;;;;;8366027;28;19962;-49
2021/08/26 09:22:46;;;;;;;;;;;22.70;46.00;;;;;;8365523;28;19920;-51
2021/08/26 09:26:48;;;;;;;;;;;22.70;46.00;;;;;;8364977;28;19970;-49
2021/08/26 09:30:48;;;;;;;;;;;22.70;46.00;;;;;;8365533;28;19940;-48
2021/08/26 09:34:49;;;;;;;;;;;22.80;46.00;;;;;;8365899;28;19919;-51
2021/08/26 09:38:50;;;;;;;;;;;22.80;46.00;;;;;;8364456;28;20321;-48
2021/08/26 09:43:04;;;;;;;;;;;22.80;46.00;;;;;;8364618;28;19999;-52
2021/08/26 09:47:06;;;;;;;;;;;22.80;46.00;;;;;;8364362;28;19924;-50
2021/08/26 09:51:13;;;;;;;;;;;22.80;46.00;;;;;;8364890;28;19920;-49
2021/08/26 09:55:13;;;;;;;;;;;22.80;45.90;;;;;;8365343;28;20320;-52
2021/08/26 09:59:13;;;;;;;;;;;22.90;45.90;;;;;;8364142;28;20023;-48
2021/08/26 10:03:15;;;;;;;;;;;22.90;45.90;;;;;;8364526;28;19924;-51
2021/08/26 10:07:16;;;;;;;;;;;22.90;45.90;;;;;;8362078;28;19925;-50
2021/08/26 10:11:18;;;;;;;;;;;22.90;45.80;;;;;;8364524;28;20373;-47
2021/08/26 10:15:19;;;;;;;;;;;23.00;45.80;;;;;;8364200;28;19917;-52
2021/08/26 10:19:19;;;;;;;;;;;23.00;45.80;;;;;;8363862;28;20436;-50
2021/08/26 10:23:20;;;;;;;;;;;23.00;45.70;;;;;;8363053;28;19929;-48
2021/08/26 10:27:23;;;;;;;;;;;23.00;45.70;;;;;;8362678;28;19982;-49
2021/08/26 10:31:24;;;;;;;;;;;23.00;45.70;;;;;;8363510;28;19927;-48
2021/08/26 10:35:25;;;;;;;;;;;23.00;45.60;;;;;;8362761;28;19917;-47
2021/08/26 10:39:33;;;;;;;;;;;23.10;45.70;;;;;;8362750;28;19923;-48
2021/08/26 10:43:37;;;;;;;;;;;23.10;45.60;;;;;;8363019;28;20258;-47
2021/08/26 10:47:50;;;;;;;;;;;23.10;45.50;;;;;;8363205;28;19921;-48
2021/08/26 10:51:52;;;;;;;;;;;23.10;45.50;;;;;;8362885;28;20369;-48
2021/08/26 10:55:53;;;;;;;;;;;23.10;45.50;;;;;;8362752;28;19997;-47
2021/08/26 10:59:54;;;;;;;;;;;23.10;45.50;;;;;;8362146;28;19916;-47
2021/08/26 11:03:56;;;;;;;;;;;23.10;45.40;;;;;;8362820;28;19920;-47
2021/08/26 11:07:56;;;;;;;;;;;23.10;45.50;;;;;;8362598;28;19932;-48
2021/08/26 11:11:59;;;;;;;;;;;23.10;45.40;;;;;;8361779;28;19920;-50
2021/08/26 11:16:18;;;;;;;;;;;23.10;45.50;;;;;;8362185;28;20003;-48
2021/08/26 11:20:25;;;;;;;;;;;23.10;45.50;;;;;;8361588;28;19970;-47
2021/08/26 11:24:27;;;;;;;;;;;23.10;45.50;;;;;;8362516;28;19923;-50
2021/08/26 11:28:32;;;;;;;;;;;23.10;45.50;;;;;;8362003;28;19962;-49
2021/08/26 11:32:32;;;;;;;;;;;23.10;45.50;;;;;;8367505;28;19924;-49
2021/08/26 11:36:32;;;;;;;;;;;23.10;45.50;;;;;;8372904;28;20038;-49
2021/08/26 11:40:33;;;;;;;;;;;23.20;45.40;;;;;;8372702;28;20270;-47
2021/08/26 11:44:34;;;;;;;;;;;23.10;45.40;;;;;;8373079;28;20388;-49
2021/08/26 11:48:35;;;;;;;;;;;23.10;45.40;;;;;;8373162;28;19995;-50
2021/08/26 11:52:35;;;;;;;;;;;23.20;45.50;;;;;;8372118;28;19917;-47
2021/08/26 11:56:43;;;;;;;;;;;23.20;45.50;;;;;;8372133;28;20436;-46
2021/08/26 12:00:45;;;;;;;;;;;23.20;45.40;;;;;;8373411;28;19913;-47
2021/08/26 12:04:51;;;;;;;;;;;23.20;45.40;;;;;;8372157;28;19935;-46
2021/08/26 12:08:52;;;;;;;;;;;23.20;45.40;;;;;;8371855;28;19928;-48
2021/08/26 12:12:54;;;;;;;;;;;23.20;45.30;;;;;;8372266;28;19967;-48
2021/08/26 12:16:56;;;;;;;;;;;23.20;45.20;;;;;;8372397;28;19939;-47
2021/08/26 12:21:04;;;;;;;;;;;23.20;45.30;;;;;;8372652;28;20365;-48
2021/08/26 12:25:05;;;;;;;;;;;23.30;45.30;;;;;;8371882;28;19925;-47
2021/08/26 12:29:05;;;;;;;;;;;23.30;45.30;;;;;;8371808;28;20289;-53
2021/08/26 12:33:20;;;;;;;;;;;23.30;45.30;;;;;;8371484;28;21281;-49
2021/08/26 12:37:20;;;;;;;;;;;23.30;45.30;;;;;;8372771;28;19952;-51
2021/08/26 12:41:25;;;;;;;;;;;23.30;45.30;;;;;;8372248;28;20117;-49
2021/08/26 12:45:25;;;;;;;;;;;23.30;45.30;;;;;;8367308;28;19931;-47
2021/08/26 12:49:25;;;;;;;;;;;23.30;45.20;;;;;;8367868;28;19956;-50
2021/08/26 12:53:26;;;;;;;;;;;23.30;45.30;;;;;;8367322;28;19924;-53
2021/08/26 12:57:26;;;;;;;;;;;23.30;45.40;;;;;;8368408;28;19913;-48
2021/08/26 13:01:27;;;;;;;;;;;23.20;45.30;;;;;;8367437;28;19916;-48
2021/08/26 13:05:27;;;;;;;;;;;23.30;45.40;;;;;;8366709;28;19929;-48
2021/08/26 13:09:31;;;;;;;;;;;23.20;45.30;;;;;;8367107;28;20003;-47
2021/08/26 13:13:31;;;;;;;;;;;23.20;45.30;;;;;;8367999;28;19989;-48
2021/08/26 13:17:32;;;;;;;;;;;23.20;45.40;;;;;;8366591;28;19923;-48
2021/08/26 13:21:33;;;;;;;;;;;23.30;45.50;;;;;;8366783;28;19917;-48
2021/08/26 13:25:34;;;;;;;;;;;23.30;45.40;;;;;;8366850;28;20377;-47
2021/08/26 13:29:34;;;;;;;;;;;23.30;45.40;;;;;;8366522;28;20471;-48
2021/08/26 13:33:35;;;;;;;;;;;23.30;45.40;;;;;;8367319;28;19936;-48
2021/08/26 13:37:35;;;;;;;;;;;23.30;45.40;;;;;;8366444;28;19924;-49
2021/08/26 13:41:36;;;;;;;;;;;23.30;45.40;;;;;;8365845;28;19971;-49
2021/08/26 13:45:37;;;;;;;;;;;23.30;45.50;;;;;;8366481;28;19964;-47
2021/08/26 13:49:37;;;;;;;;;;;23.30;45.50;;;;;;8366611;28;19966;-48
2021/08/26 13:53:45;;;;;;;;;;;23.20;45.50;;;;;;8365246;28;19917;-48
2021/08/26 13:57:46;;;;;;;;;;;23.20;45.50;;;;;;8367472;28;19917;-49
2021/08/26 14:01:46;;;;;;;;;;;23.20;45.50;;;;;;8365703;28;19921;-48
2021/08/26 14:05:47;;;;;;;;;;;23.20;45.50;;;;;;8365763;28;19920;-48
2021/08/26 14:09:47;;;;;;;;;;;23.20;45.60;;;;;;8365578;28;19928;-48
2021/08/26 14:13:48;;;;;;;;;;;23.20;45.60;;;;;;8365535;28;19935;-47
2021/08/26 14:17:48;;;;;;;;;;;23.30;45.60;;;;;;8364554;28;20380;-48
2021/08/26 14:21:49;;;;;;;;;;;23.20;45.60;;;;;;8364734;28;19999;-50
2021/08/26 14:25:49;;;;;;;;;;;23.20;45.60;;;;;;8365475;28;19925;-47
2021/08/26 14:29:50;;;;;;;;;;;23.20;45.60;;;;;;8364350;28;20404;-48
2021/08/26 14:33:50;;;;;;;;;;;23.20;45.60;;;;;;8364609;28;19921;-48
2021/08/26 14:37:51;;;;;;;;;;;23.20;45.60;;;;;;8364392;28;20258;-48
2021/08/26 14:41:51;;;;;;;;;;;23.20;45.60;;;;;;8364651;28;19921;-49
2021/08/26 14:45:51;;;;;;;;;;;23.20;45.60;;;;;;8362793;28;19932;-50
2021/08/26 14:49:52;;;;;;;;;;;23.20;45.60;;;;;;8364180;28;19948;-48
2021/08/26 14:53:53;;;;;;;;;;;23.20;45.60;;;;;;8363504;28;19917;-47
2021/08/26 14:57:53;;;;;;;;;;;23.20;45.60;;;;;;8364804;28;20336;-49
2021/08/26 15:01:53;;;;;;;;;;;23.20;45.60;;;;;;8363893;28;19917;-49
2021/08/26 15:05:54;;;;;;;;;;;23.20;45.60;;;;;;8362638;28;19925;-50
2021/08/26 15:09:57;;;;;;;;;;;23.20;45.60;;;;;;8364004;28;19921;-47
2021/08/26 15:13:58;;;;;;;;;;;23.20;45.70;;;;;;8363645;28;19948;-50
2021/08/26 15:17:58;;;;;;;;;;;23.20;45.60;;;;;;8363768;28;19916;-45
2021/08/26 15:21:58;;;;;;;;;;;23.20;45.70;;;;;;8363253;28;20055;-49
2021/08/26 15:26:00;;;;;;;;;;;23.20;45.70;;;;;;8363390;28;19925;-50
2021/08/26 15:30:04;;;;;;;;;;;23.20;45.70;;;;;;8362785;28;19925;-49
2021/08/26 15:34:05;;;;;;;;;;;23.20;45.70;;;;;;8363750;28;19913;-48
2021/08/26 15:38:06;;;;;;;;;;;23.20;45.70;;;;;;8362576;28;19924;-50
2021/08/26 15:42:06;;;;;;;;;;;23.20;45.70;;;;;;8363205;28;20002;-48
2021/08/26 15:46:07;;;;;;;;;;;23.20;45.70;;;;;;8363087;28;19950;-48
2021/08/26 15:50:07;;;;;;;;;;;23.20;45.70;;;;;;8362374;28;20364;-51
2021/08/26 15:54:18;;;;;;;;;;;23.20;45.80;;;;;;8363873;28;19977;-49
2021/08/26 15:58:24;;;;;;;;;;;23.20;45.80;;;;;;8362673;28;19967;-47
2021/08/26 16:02:27;;;;;;;;;;;23.20;45.80;;;;;;8364018;28;19917;-48
2021/08/26 16:06:28;;;;;;;;;;;23.20;45.90;;;;;;8362854;28;20262;-49
2021/08/26 16:10:28;;;;;;;;;;;23.20;45.90;;;;;;8363447;28;19924;-48
2021/08/26 16:14:29;;;;;;;;;;;23.20;45.90;;;;;;8361942;28;19979;-48
2021/08/26 16:18:29;;;;;;;;;;;23.20;46.00;;;;;;8365268;28;20423;-48
2021/08/26 16:22:30;;;;;;;;;;;23.20;46.00;;;;;;8368621;28;19913;-48
2021/08/26 16:26:32;;;;;;;;;;;23.20;46.00;;;;;;8368153;28;19925;-52
2021/08/26 16:30:32;;;;;;;;;;;23.10;46.00;;;;;;8369152;28;20296;-49
2021/08/26 16:34:33;;;;;;;;;;;23.10;46.00;;;;;;8368378;28;19917;-52
2021/08/26 16:38:33;;;;;;;;;;;23.20;46.10;;;;;;8367811;28;19917;-48
2021/08/26 16:42:34;;;;;;;;;;;23.10;46.00;;;;;;8368257;28;19917;-48
2021/08/26 16:46:34;;;;;;;;;;;23.10;46.00;;;;;;8368489;28;19921;-48
2021/08/26 16:50:34;;;;;;;;;;;23.10;46.00;;;;;;8367277;28;20296;-49
2021/08/26 16:54:35;;;;;;;;;;;23.20;46.00;;;;;;8367658;28;19940;-49
2021/08/26 16:58:35;;;;;;;;;;;23.10;46.00;;;;;;8367886;28;20320;-48
2021/08/26 17:02:36;;;;;;;;;;;23.10;46.00;;;;;;8367834;28;19921;-49
2021/08/26 17:06:36;;;;;;;;;;;23.10;46.00;;;;;;8367484;28;19929;-49
2021/08/26 17:10:37;;;;;;;;;;;23.10;46.10;;;;;;8367295;28;19921;-53
2021/08/26 17:14:37;;;;;;;;;;;23.10;46.10;;;;;;8366540;28;19917;-48
2021/08/26 17:18:38;;;;;;;;;;;23.10;46.10;;;;;;8367221;28;19912;-48
2021/08/26 17:22:40;;;;;;;;;;;23.10;46.10;;;;;;8367540;28;20285;-48
2021/08/26 17:26:41;;;;;;;;;;;23.10;46.10;;;;;;8366118;28;19925;-50
2021/08/26 17:30:42;;;;;;;;;;;23.10;46.10;;;;;;8366017;28;19920;-48
2021/08/26 17:34:44;;;;;;;;;;;23.10;46.10;;;;;;8366463;28;19912;-48
2021/08/26 17:38:45;;;;;;;;;;;23.10;46.10;;;;;;8366439;28;19921;-48
2021/08/26 17:42:46;;;;;;;;;;;23.10;46.10;;;;;;8366462;28;19994;-48
2021/08/26 17:46:46;;;;;;;;;;;23.10;46.10;;;;;;8365989;28;19920;-48
2021/08/26 17:50:47;;;;;;;;;;;23.10;46.10;;;;;;8365454;28;19917;-47
2021/08/26 17:54:47;;;;;;;;;;;23.10;46.20;;;;;;8366303;28;20019;-48
2021/08/26 17:58:47;;;;;;;;;;;23.10;46.10;;;;;;8366212;28;20000;-49
2021/08/26 18:02:49;;;;;;;;;;;23.10;46.20;;;;;;8365221;28;19917;-47
2021/08/26 18:06:49;;;;;;;;;;;23.10;46.20;;;;;;8365380;28;19928;-48
2021/08/26 18:10:50;;;;;;;;;;;23.10;46.20;;;;;;8365336;28;20024;-47
2021/08/26 18:14:50;;;;;;;;;;;23.10;46.20;;;;;;8365454;28;20388;-47
2021/08/26 18:18:51;;;;;;;;;;;23.00;46.10;;;;;;8365038;28;20296;-47
2021/08/26 18:22:51;;;;;;;;;;;23.00;46.10;;;;;;8364915;28;20369;-48
2021/08/26 18:26:52;;;;;;;;;;;23.10;46.20;;;;;;8364232;28;19979;-48
2021/08/26 18:30:52;;;;;;;;;;;23.00;46.20;;;;;;8365469;28;19912;-48
2021/08/26 18:34:53;;;;;;;;;;;23.00;46.20;;;;;;8364537;28;19962;-48
2021/08/26 18:38:54;;;;;;;;;;;23.10;46.20;;;;;;8364105;28;19963;-49
2021/08/26 18:42:54;;;;;;;;;;;23.00;46.20;;;;;;8363210;28;19921;-49
2021/08/26 18:46:55;;;;;;;;;;;23.00;46.20;;;;;;8364251;28;19960;-49
2021/08/26 18:50:55;;;;;;;;;;;23.00;46.20;;;;;;8364363;28;19913;-49
2021/08/26 18:54:56;;;;;;;;;;;23.00;46.20;;;;;;8363964;28;19917;-48
2021/08/26 18:58:56;;;;;;;;;;;23.00;46.20;;;;;;8363878;28;19928;-47
2021/08/26 19:02:57;;;;;;;;;;;23.00;46.20;;;;;;8363247;28;20332;-47
2021/08/26 19:06:57;;;;;;;;;;;23.00;46.20;;;;;;8364145;28;19928;-48
2021/08/26 19:10:58;;;;;;;;;;;23.00;46.20;;;;;;8363669;28;20373;-48
2021/08/26 19:15:00;;;;;;;;;;;23.00;46.20;;;;;;8363005;28;20393;-49
2021/08/26 19:19:00;;;;;;;;;;;23.00;46.20;;;;;;8363574;28;19917;-51
2021/08/26 19:23:01;;;;;;;;;;;22.90;46.20;;;;;;8364020;28;20407;-51
2021/08/26 19:27:02;;;;;;;;;;;22.90;46.20;;;;;;8362698;28;19928;-48
2021/08/26 19:31:03;;;;;;;;;;;22.90;46.20;;;;;;8363376;28;20365;-48
2021/08/26 19:35:03;;;;;;;;;;;22.90;46.20;;;;;;8362804;28;19932;-47
2021/08/26 19:39:04;;;;;;;;;;;22.90;46.70;;;;;;8363380;28;19913;-47
2021/08/26 19:43:04;;;;;;;;;;;23.00;46.30;;;;;;8363677;28;20008;-48
2021/08/26 19:47:05;;;;;;;;;;;22.90;46.20;;;;;;8362597;28;20254;-48
2021/08/26 19:51:05;;;;;;;;;;;22.90;46.20;;;;;;8362833;28;19916;-47
2021/08/26 19:55:07;;;;;;;;;;;22.90;46.20;;;;;;8368733;28;19923;-48
2021/08/26 19:59:07;;;;;;;;;;;22.90;46.20;;;;;;8369848;28;19913;-47
2021/08/26 20:03:07;;;;;;;;;;;22.90;46.20;;;;;;8369451;28;19939;-49
2021/08/26 20:07:08;;;;;;;;;;;22.90;46.20;;;;;;8369321;28;20070;-49
2021/08/26 20:11:09;;;;;;;;;;;22.90;46.30;;;;;;8368540;28;19917;-52
2021/08/26 20:15:13;;;;;;;;;;;22.90;46.20;;;;;;8369645;28;19920;-47
2021/08/26 20:19:13;;;;;;;;;;;22.90;46.20;;;;;;8369348;28;19924;-53
2021/08/26 20:23:14;;;;;;;;;;;22.90;46.20;;;;;;8368352;28;20257;-48
2021/08/26 20:27:15;;;;;;;;;;;22.80;46.20;;;;;;8368731;28;20020;-49
2021/08/26 20:31:15;;;;;;;;;;;22.80;46.20;;;;;;8368502;28;20373;-51
2021/08/26 20:35:15;;;;;;;;;;;22.90;46.30;;;;;;8368537;28;20324;-48
2021/08/26 20:39:16;;;;;;;;;;;22.80;46.20;;;;;;8368180;28;20350;-48
2021/08/26 20:43:16;;;;;;;;;;;22.80;46.20;;;;;;8368202;28;19916;-49
2021/08/26 20:47:17;;;;;;;;;;;22.80;46.30;;;;;;8367775;28;19932;-49
2021/08/26 20:51:17;;;;;;;;;;;22.80;46.30;;;;;;8368831;28;19919;-50
2021/08/26 20:55:18;;;;;;;;;;;22.80;46.20;;;;;;8367789;28;19979;-48
2021/08/26 20:59:18;;;;;;;;;;;22.80;46.30;;;;;;8366179;28;19917;-49
2021/08/26 21:03:19;;;;;;;;;;;22.80;46.30;;;;;;8367245;28;19917;-49
2021/08/26 21:07:20;;;;;;;;;;;22.80;46.30;;;;;;8367083;28;19932;-48
2021/08/26 21:11:20;;;;;;;;;;;22.80;46.30;;;;;;8367645;28;20387;-47
2021/08/26 21:15:21;;;;;;;;;;;22.80;46.30;;;;;;8367087;28;19973;-48
2021/08/26 21:19:21;;;;;;;;;;;22.80;46.30;;;;;;8367119;28;20286;-48
2021/08/26 21:23:22;;;;;;;;;;;22.70;46.30;;;;;;8366512;28;19932;-48
2021/08/26 21:27:22;;;;;;;;;;;22.80;46.30;;;;;;8367477;28;19920;-48
2021/08/26 21:31:23;;;;;;;;;;;22.80;46.30;;;;;;8366532;28;20391;-48
2021/08/26 21:35:24;;;;;;;;;;;22.80;46.30;;;;;;8366211;28;20304;-48
2021/08/26 21:39:24;;;;;;;;;;;22.80;46.30;;;;;;8366275;28;20008;-48
2021/08/26 21:43:25;;;;;;;;;;;22.70;46.30;;;;;;8367084;28;19916;-48
2021/08/26 21:47:25;;;;;;;;;;;22.70;46.30;;;;;;8365643;28;19925;-48
2021/08/26 21:51:26;;;;;;;;;;;22.70;46.30;;;;;;8365932;28;19963;-48
2021/08/26 21:55:26;;;;;;;;;;;22.70;46.30;;;;;;8365979;28;19913;-48
2021/08/26 21:59:28;;;;;;;;;;;22.70;46.30;;;;;;8365416;28;19917;-48
2021/08/26 22:03:28;;;;;;;;;;;22.70;46.30;;;;;;8365818;28;19917;-50
2021/08/26 22:07:29;;;;;;;;;;;22.70;46.30;;;;;;8365406;28;20297;-48
2021/08/26 22:11:29;;;;;;;;;;;22.70;46.30;;;;;;8364958;28;20003;-49
2021/08/26 22:15:30;;;;;;;;;;;22.70;46.30;;;;;;8365185;28;19917;-48
2021/08/26 22:19:30;;;;;;;;;;;22.70;46.40;;;;;;8365824;28;20101;-48
2021/08/26 22:23:31;;;;;;;;;;;22.70;46.40;;;;;;8364588;28;19917;-49
2021/08/26 22:27:32;;;;;;;;;;;22.70;46.30;;;;;;8365185;28;19991;-48
2021/08/26 22:31:32;;;;;;;;;;;22.70;46.40;;;;;;8364791;28;19917;-48
2021/08/26 22:35:32;;;;;;;;;;;22.70;46.40;;;;;;8364858;28;19912;-48
2021/08/26 22:39:34;;;;;;;;;;;22.70;46.40;;;;;;8364397;28;19917;-48
2021/08/26 22:43:34;;;;;;;;;;;22.60;46.30;;;;;;8364263;28;19917;-49
2021/08/26 22:47:35;;;;;;;;;;;22.70;46.40;;;;;;8363771;28;19929;-48
2021/08/26 22:51:35;;;;;;;;;;;22.60;46.40;;;;;;8364314;28;19920;-48
2021/08/26 22:55:36;;;;;;;;;;;22.60;46.40;;;;;;8364878;28;20003;-49
2021/08/26 22:59:36;;;;;;;;;;;22.60;46.40;;;;;;8363383;28;19921;-48
2021/08/26 23:03:37;;;;;;;;;;;22.60;46.40;;;;;;8363850;28;19923;-50
2021/08/26 23:07:37;;;;;;;;;;;22.60;46.40;;;;;;8363413;28;19932;-49
2021/08/26 23:11:38;;;;;;;;;;;22.60;46.40;;;;;;8363907;28;19916;-48
2021/08/26 23:15:38;;;;;;;;;;;22.60;46.40;;;;;;8363749;28;19966;-49
2021/08/26 23:19:39;;;;;;;;;;;22.60;46.40;;;;;;8363761;28;19917;-49
2021/08/26 23:23:39;;;;;;;;;;;22.60;46.40;;;;;;8363129;28;19917;-48